Time;durP1;ratioP1;P1;durP2;ratioP2;P2;SDS_P1;SDS_P2;PMS_P1;PMS_P2;Temp;Humidity;BMP_temperature;BMP_pressure;BME280_temperature;BME280_humidity;BME280_pressure;Samples;Min_cycle;Max_cycle;Signal;HPM_P1;HPM_P2
2020/12/07 00:02:04;;;;;;;0.35;0.35;;;15.20;84.40;;;;;;4234369;28;20054;-41
2020/12/07 00:04:25;;;;;;;0.00;0.00;;;15.20;84.40;;;;;;4217735;28;20048;-41
2020/12/07 00:06:45;;;;;;;0.35;0.35;;;15.20;84.40;;;;;;4217731;28;20048;-41
2020/12/07 00:09:10;;;;;;;0.00;0.00;;;15.20;84.50;;;;;;4217873;28;20051;-41
2020/12/07 00:11:31;;;;;;;1.90;0.47;;;15.30;84.60;;;;;;4217768;28;20055;-43
2020/12/07 00:13:52;;;;;;;0.50;0.50;;;15.20;84.60;;;;;;4217613;28;20060;-41
2020/12/07 00:16:13;;;;;;;2.72;2.53;;;15.20;84.60;;;;;;4233347;28;20054;-41
2020/12/07 00:18:34;;;;;;;0.13;0.13;;;15.20;84.60;;;;;;4234565;28;20047;-41
2020/12/07 00:20:55;;;;;;;1.15;1.15;;;15.20;84.60;;;;;;4234224;28;20093;-41
2020/12/07 00:23:16;;;;;;;0.25;0.25;;;15.20;84.70;;;;;;4233954;28;20409;-41
2020/12/07 00:25:39;;;;;;;0.00;0.00;;;15.20;84.70;;;;;;4219080;28;20548;-41
2020/12/07 00:28:01;;;;;;;4.68;1.45;;;15.10;84.60;;;;;;4234316;28;20070;-40
2020/12/07 00:30:23;;;;;;;0.75;0.75;;;15.10;84.70;;;;;;4234450;28;20052;-41
2020/12/07 00:32:44;;;;;;;0.10;0.10;;;15.10;84.70;;;;;;4234294;28;20572;-41
2020/12/07 00:35:05;;;;;;;0.00;0.00;;;15.10;84.80;;;;;;4234042;28;20057;-41
2020/12/07 00:37:26;;;;;;;0.00;0.00;;;15.10;84.80;;;;;;4234209;28;20574;-41
2020/12/07 00:39:47;;;;;;;0.00;0.00;;;15.10;84.80;;;;;;4234301;28;20759;-42
2020/12/07 00:42:09;;;;;;;3.40;3.13;;;15.10;84.90;;;;;;4234411;28;20052;-41
2020/12/07 00:44:31;;;;;;;0.20;0.20;;;15.10;84.80;;;;;;4234125;28;20051;-41
2020/12/07 00:46:52;;;;;;;0.00;0.00;;;15.10;84.90;;;;;;4234353;28;20051;-41
2020/12/07 00:49:16;;;;;;;0.50;0.50;;;15.10;84.90;;;;;;4215290;28;20048;-40
2020/12/07 00:51:37;;;;;;;2.28;1.88;;;15.10;85.00;;;;;;4231185;28;20046;-41
2020/12/07 00:53:59;;;;;;;0.10;0.10;;;15.00;84.80;;;;;;4231287;28;20120;-41
2020/12/07 00:56:22;;;;;;;0.17;0.17;;;15.00;84.90;;;;;;4231639;28;20052;-41
2020/12/07 00:58:43;;;;;;;0.75;0.60;;;15.00;85.00;;;;;;4215919;28;20130;-41
2020/12/07 01:01:05;;;;;;;0.10;0.10;;;15.00;85.00;;;;;;4231346;28;20056;-44
2020/12/07 01:03:26;;;;;;;0.20;0.20;;;15.00;85.00;;;;;;4231207;28;20399;-41
2020/12/07 01:05:47;;;;;;;0.85;0.85;;;15.00;85.00;;;;;;4231454;28;20051;-41
2020/12/07 01:08:09;;;;;;;0.15;0.15;;;15.00;85.10;;;;;;4215659;28;20055;-41
2020/12/07 01:10:31;;;;;;;;;;;15.00;85.10;;;;;;4216177;28;20586;-41
2020/12/07 01:12:52;;;;;;;0.10;0.10;;;15.00;85.20;;;;;;4215824;28;19993;-41
2020/12/07 01:15:13;;;;;;;0.10;0.10;;;15.00;85.10;;;;;;4230719;28;20555;-41
2020/12/07 01:17:35;;;;;;;0.80;0.73;;;15.00;85.20;;;;;;4215889;28;20130;-41
2020/12/07 01:20:01;;;;;;;0.38;0.38;;;15.00;85.30;;;;;;4215670;28;20066;-41
2020/12/07 01:22:24;;;;;;;2.55;1.05;;;15.00;85.30;;;;;;4230959;28;20554;-42
2020/12/07 01:24:46;;;;;;;0.20;0.20;;;14.90;85.30;;;;;;4215666;28;20052;-41
2020/12/07 01:27:07;;;;;;;;;;;14.90;85.30;;;;;;4231380;28;20051;-41
2020/12/07 01:29:28;;;;;;;0.90;0.90;;;14.90;85.30;;;;;;4215813;28;19934;-41
2020/12/07 01:31:49;;;;;;;0.20;0.20;;;15.00;85.30;;;;;;4215046;28;20060;-42
2020/12/07 01:34:11;;;;;;;0.85;0.85;;;14.90;85.30;;;;;;4230966;28;20101;-42
2020/12/07 01:36:35;;;;;;;0.00;0.00;;;14.90;86.20;;;;;;4230882;28;20066;-41
2020/12/07 01:38:56;;;;;;;0.00;0.00;;;14.90;85.40;;;;;;4215291;28;20059;-41
2020/12/07 01:41:19;;;;;;;0.75;0.75;;;14.90;85.30;;;;;;4215554;28;20177;-42
2020/12/07 01:43:41;;;;;;;0.10;0.10;;;14.90;85.40;;;;;;4230933;28;20052;-42
2020/12/07 01:46:06;;;;;;;0.63;0.28;;;14.90;85.40;;;;;;4230632;28;20056;-41
2020/12/07 01:48:30;;;;;;;0.00;0.00;;;14.90;85.40;;;;;;4215395;28;20051;-42
2020/12/07 01:50:58;;;;;;;0.10;0.10;;;14.90;85.50;;;;;;4215046;28;20079;-42
2020/12/07 01:53:21;;;;;;;0.10;0.10;;;14.90;85.50;;;;;;4214837;28;20144;-42
2020/12/07 01:55:44;;;;;;;0.25;0.25;;;14.90;85.60;;;;;;4230420;28;20148;-41
2020/12/07 01:58:08;;;;;;;0.08;0.08;;;14.90;85.60;;;;;;4215171;28;20051;-42
2020/12/07 02:00:29;;;;;;;1.30;0.75;;;14.80;85.50;;;;;;4214422;28;20076;-42
2020/12/07 02:02:57;;;;;;;1.85;0.65;;;14.90;85.60;;;;;;4230053;28;20067;-41
2020/12/07 02:05:24;;;;;;;0.13;0.13;;;14.80;85.60;;;;;;4215133;28;20126;-41
2020/12/07 02:08:09;;;;;;;0.10;0.10;;;14.80;85.60;;;;;;4214236;28;20055;-41
2020/12/07 02:10:31;;;;;;;0.50;0.50;;;14.80;85.60;;;;;;4215487;28;20051;-41
2020/12/07 02:12:52;;;;;;;0.00;0.00;;;14.80;85.60;;;;;;4214560;28;20048;-41
2020/12/07 02:15:13;;;;;;;0.00;0.00;;;14.80;85.70;;;;;;4214938;28;20430;-42
2020/12/07 02:17:35;;;;;;;0.10;0.10;;;14.80;85.70;;;;;;4214678;28;20083;-41
2020/12/07 02:19:57;;;;;;;0.08;0.08;;;14.80;85.70;;;;;;4230369;28;20055;-41
2020/12/07 02:22:22;;;;;;;0.30;0.30;;;14.80;85.70;;;;;;4214239;28;20048;-42
2020/12/07 02:25:02;;;;;;;0.00;0.00;;;14.80;85.80;;;;;;4229852;28;20047;-42
2020/12/07 02:27:25;;;;;;;0.10;0.10;;;14.70;85.70;;;;;;4214698;28;20059;-41
2020/12/07 02:29:46;;;;;;;0.03;0.03;;;14.80;85.90;;;;;;4214284;28;20054;-42
2020/12/07 02:32:13;;;;;;;1.20;0.43;;;14.80;85.90;;;;;;4213827;28;20052;-42
2020/12/07 02:34:40;;;;;;;;;;;14.80;85.90;;;;;;4215300;28;20128;-41
2020/12/07 02:37:02;;;;;;;0.10;0.10;;;14.70;85.90;;;;;;4213930;28;19924;-41
2020/12/07 02:39:24;;;;;;;0.00;0.00;;;14.70;85.90;;;;;;4211893;28;20449;-41
2020/12/07 02:41:51;;;;;;;0.10;0.10;;;14.70;85.90;;;;;;4197595;28;20053;-41
2020/12/07 02:44:12;;;;;;;0.52;0.52;;;14.70;86.00;;;;;;4197426;28;20499;-41
2020/12/07 02:46:33;;;;;;;0.10;0.10;;;14.70;86.00;;;;;;4197634;28;20052;-42
2020/12/07 02:48:54;;;;;;;0.00;0.00;;;14.70;86.00;;;;;;4225985;28;20502;-42
2020/12/07 02:51:16;;;;;;;0.10;0.10;;;14.70;86.00;;;;;;4210759;28;20064;-42
2020/12/07 02:53:38;;;;;;;1.38;1.27;;;14.70;86.00;;;;;;4214080;28;20056;-46
2020/12/07 02:56:01;;;;;;;0.35;0.35;;;14.70;86.00;;;;;;4214360;28;20140;-42
2020/12/07 02:58:26;;;;;;;0.00;0.00;;;14.60;86.00;;;;;;4214350;28;20473;-42
2020/12/07 03:00:52;;;;;;;0.00;0.00;;;14.60;86.10;;;;;;4214060;28;20056;-44
2020/12/07 03:03:13;;;;;;;0.00;0.00;;;14.60;86.10;;;;;;4214006;28;20055;-43
2020/12/07 03:05:35;;;;;;;0.08;0.08;;;14.60;86.10;;;;;;4214410;28;20139;-45
2020/12/07 03:08:02;;;;;;;0.00;0.00;;;14.60;86.20;;;;;;4213464;28;20070;-42
2020/12/07 03:10:24;;;;;;;0.28;0.28;;;14.60;86.20;;;;;;4214004;28;20052;-42
2020/12/07 03:12:48;;;;;;;0.10;0.10;;;14.60;86.20;;;;;;4213857;28;20143;-42
2020/12/07 03:15:13;;;;;;;1.17;0.88;;;14.60;86.30;;;;;;4214012;28;20052;-46
2020/12/07 03:17:38;;;;;;;0.10;0.10;;;14.60;86.30;;;;;;4229571;28;20051;-42
2020/12/07 03:19:59;;;;;;;;;;;14.60;86.30;;;;;;4213855;28;20056;-43
2020/12/07 03:22:20;;;;;;;0.05;0.05;;;14.60;86.30;;;;;;4229330;28;19923;-42
2020/12/07 03:24:41;;;;;;;0.20;0.20;;;14.50;86.30;;;;;;4214306;28;20052;-43
2020/12/07 03:27:04;;;;;;;0.00;0.00;;;14.60;86.40;;;;;;4213665;28;20059;-42
2020/12/07 03:29:25;;;;;;;1.35;1.25;;;14.50;86.40;;;;;;4229450;28;20051;-40
2020/12/07 03:31:46;;;;;;;0.30;0.30;;;14.50;86.40;;;;;;4212957;28;20534;-43
2020/12/07 03:34:11;;;;;;;0.10;0.10;;;14.50;86.40;;;;;;4214058;28;20528;-42
2020/12/07 03:36:32;;;;;;;0.00;0.00;;;14.50;86.50;;;;;;4213198;28;20098;-42
2020/12/07 03:38:55;;;;;;;1.05;1.05;;;14.50;86.50;;;;;;4213665;28;20090;-42
2020/12/07 03:41:17;;;;;;;0.73;0.73;;;14.50;86.50;;;;;;4228864;28;20091;-42
2020/12/07 03:43:46;;;;;;;0.13;0.13;;;14.50;86.60;;;;;;4213392;28;20095;-42
2020/12/07 03:46:08;;;;;;;0.45;0.45;;;14.50;86.60;;;;;;4202524;28;20130;-42
2020/12/07 03:48:32;;;;;;;0.30;0.30;;;14.50;86.60;;;;;;4214064;28;20048;-41
2020/12/07 03:50:54;;;;;;;0.55;0.55;;;14.50;86.60;;;;;;4229050;28;20051;-41
2020/12/07 03:53:17;;;;;;;0.57;0.57;;;14.50;86.70;;;;;;4213211;28;20109;-41
2020/12/07 03:55:38;;;;;;;0.15;0.15;;;14.50;86.60;;;;;;4213519;28;20051;-42
2020/12/07 03:58:04;;;;;;;0.20;0.20;;;14.50;86.70;;;;;;4213913;28;20048;-41
2020/12/07 04:00:27;;;;;;;0.63;0.63;;;14.40;86.60;;;;;;4228284;28;20043;-41
2020/12/07 04:02:56;;;;;;;0.40;0.40;;;14.40;86.70;;;;;;4213407;28;20059;-42
2020/12/07 04:05:29;;;;;;;0.30;0.30;;;14.40;86.70;;;;;;4213583;28;20056;-42
2020/12/07 04:07:51;;;;;;;1.65;0.47;;;14.40;86.70;;;;;;4213127;28;20052;-41
2020/12/07 04:10:13;;;;;;;0.00;0.00;;;14.40;86.70;;;;;;4213541;28;20062;-41
2020/12/07 04:12:34;;;;;;;0.00;0.00;;;14.40;86.70;;;;;;4228817;28;20050;-41
2020/12/07 04:14:54;;;;;;;2.45;2.35;;;14.40;86.70;;;;;;4229127;28;20068;-41
2020/12/07 04:17:18;;;;;;;0.45;0.45;;;14.40;86.80;;;;;;4228753;28;20218;-41
2020/12/07 04:19:39;;;;;;;0.52;0.52;;;14.40;86.80;;;;;;4228456;28;20512;-42
2020/12/07 04:21:59;;;;;;;0.17;0.17;;;14.40;86.80;;;;;;4228965;28;20060;-41
2020/12/07 04:24:20;;;;;;;3.63;0.88;;;14.40;86.80;;;;;;4231668;28;20051;-42
2020/12/07 04:26:41;;;;;;;2.10;2.03;;;14.40;86.80;;;;;;4231725;28;20070;-42
2020/12/07 04:29:02;;;;;;;0.00;0.00;;;14.40;87.00;;;;;;4231812;28;20055;-41
2020/12/07 04:31:26;;;;;;;0.08;0.08;;;14.30;86.90;;;;;;4231205;28;20452;-41
2020/12/07 04:33:48;;;;;;;0.00;0.00;;;14.30;87.00;;;;;;4215290;28;20059;-42
2020/12/07 04:36:09;;;;;;;0.70;0.70;;;14.30;87.00;;;;;;4215154;28;20056;-41
2020/12/07 04:38:29;;;;;;;0.05;0.05;;;14.30;87.00;;;;;;4214675;28;20063;-41
2020/12/07 04:40:51;;;;;;;0.20;0.20;;;14.30;87.00;;;;;;4215070;28;20079;-41
2020/12/07 04:43:13;;;;;;;0.65;0.65;;;14.30;87.00;;;;;;4215267;28;20048;-41
2020/12/07 04:45:34;;;;;;;0.43;0.43;;;14.30;87.00;;;;;;4215294;28;20082;-41
2020/12/07 04:47:54;;;;;;;1.35;1.35;;;14.30;87.00;;;;;;4214589;28;20510;-41
2020/12/07 04:50:17;;;;;;;0.00;0.00;;;14.30;87.00;;;;;;4221987;28;20055;-41
2020/12/07 04:52:38;;;;;;;0.13;0.13;;;14.30;87.10;;;;;;4231366;28;20108;-41
2020/12/07 04:55:02;;;;;;;0.00;0.00;;;14.30;87.10;;;;;;4231348;28;20039;-41
2020/12/07 04:57:24;;;;;;;0.10;0.10;;;14.30;87.10;;;;;;4231718;28;20051;-41
2020/12/07 04:59:45;;;;;;;0.70;0.70;;;14.20;87.10;;;;;;4231611;28;20078;-41
2020/12/07 05:02:07;;;;;;;0.35;0.35;;;14.20;87.20;;;;;;4231029;28;20517;-41
2020/12/07 05:04:28;;;;;;;0.10;0.10;;;14.20;87.20;;;;;;4231751;28;20573;-43
2020/12/07 05:06:59;;;;;;;0.10;0.10;;;14.20;87.10;;;;;;4231039;28;20051;-42
2020/12/07 05:09:20;;;;;;;0.10;0.10;;;14.20;87.10;;;;;;4231128;28;20096;-40
2020/12/07 05:11:41;;;;;;;0.10;0.10;;;14.40;86.80;;;;;;4231279;28;20054;-41
2020/12/07 05:14:05;;;;;;;0.10;0.10;;;14.60;85.90;;;;;;4230891;28;20051;-42
2020/12/07 05:16:28;;;;;;;0.00;0.00;;;14.80;85.10;;;;;;4216037;28;20070;-41
2020/12/07 05:18:49;;;;;;;0.30;0.30;;;14.90;84.40;;;;;;4230721;28;20413;-41
2020/12/07 05:21:11;;;;;;;0.20;0.20;;;15.00;84.00;;;;;;4230963;28;20502;-41
2020/12/07 05:23:36;;;;;;;0.10;0.10;;;14.90;83.70;;;;;;4231054;28;20044;-40
2020/12/07 05:26:01;;;;;;;0.00;0.00;;;15.00;83.60;;;;;;4230951;28;20101;-41
2020/12/07 05:28:40;;;;;;;0.47;0.47;;;15.00;83.60;;;;;;4231157;28;20052;-40
2020/12/07 05:31:07;;;;;;;0.38;0.38;;;15.00;83.50;;;;;;4230680;28;20056;-41
2020/12/07 05:33:30;;;;;;;0.00;0.00;;;15.00;83.50;;;;;;4213974;28;20048;-40
2020/12/07 05:35:53;;;;;;;0.60;0.52;;;14.90;83.40;;;;;;4215041;28;20056;-41
2020/12/07 05:38:14;;;;;;;0.03;0.03;;;14.90;83.50;;;;;;4231206;28;20089;-41
2020/12/07 05:40:36;;;;;;;1.92;0.98;;;14.90;83.60;;;;;;4230646;28;20051;-41
2020/12/07 05:42:58;;;;;;;0.20;0.20;;;14.80;83.70;;;;;;4230638;28;20807;-41
2020/12/07 05:45:19;;;;;;;0.10;0.10;;;14.70;84.00;;;;;;4230078;28;20054;-41
2020/12/07 05:47:40;;;;;;;0.00;0.00;;;14.70;84.50;;;;;;4230947;28;20055;-41
2020/12/07 05:50:02;;;;;;;0.80;0.60;;;14.60;84.90;;;;;;4230444;28;20056;-41
2020/12/07 05:52:32;;;;;;;0.20;0.20;;;14.50;85.10;;;;;;4230294;28;20642;-41
2020/12/07 05:54:55;;;;;;;0.35;0.35;;;14.50;85.30;;;;;;4230412;28;20156;-42
2020/12/07 05:57:21;;;;;;;0.00;0.00;;;14.50;85.60;;;;;;4230461;28;20049;-41
2020/12/07 05:59:45;;;;;;;0.22;0.13;;;14.70;85.00;;;;;;4230263;28;20128;-41
2020/12/07 06:02:09;;;;;;;0.95;0.93;;;14.90;84.00;;;;;;4230146;28;20054;-41
2020/12/07 06:04:32;;;;;;;0.52;0.52;;;15.00;83.10;;;;;;4230264;28;20482;-41
2020/12/07 06:06:57;;;;;;;0.20;0.20;;;15.20;82.70;;;;;;4230370;28;20769;-41
2020/12/07 06:09:26;;;;;;;0.20;0.20;;;15.20;82.30;;;;;;4230738;28;20051;-41
2020/12/07 06:12:02;;;;;;;0.10;0.10;;;15.30;82.10;;;;;;4215216;28;20063;-41
2020/12/07 06:14:24;;;;;;;0.00;0.00;;;15.30;81.70;;;;;;4230180;28;20422;-41
2020/12/07 06:16:49;;;;;;;0.25;0.25;;;15.30;81.60;;;;;;4230105;28;20498;-41
2020/12/07 06:19:14;;;;;;;0.00;0.00;;;15.20;81.70;;;;;;4230068;28;20051;-41
2020/12/07 06:21:35;;;;;;;1.08;0.28;;;15.20;81.70;;;;;;4229805;28;20064;-42
2020/12/07 06:23:58;;;;;;;0.28;0.28;;;15.20;81.80;;;;;;4230442;28;20097;-41
2020/12/07 06:26:20;;;;;;;0.13;0.13;;;15.20;81.90;;;;;;4229623;28;20051;-41
2020/12/07 06:28:42;;;;;;;0.00;0.00;;;15.20;82.00;;;;;;4229953;28;20055;-41
2020/12/07 06:31:13;;;;;;;1.13;1.13;;;15.20;82.00;;;;;;4229867;28;20079;-41
2020/12/07 06:33:40;;;;;;;0.00;0.00;;;15.20;82.00;;;;;;4229845;28;20139;-41
2020/12/07 06:36:02;;;;;;;0.00;0.00;;;15.20;82.00;;;;;;4229490;28;20063;-43
2020/12/07 06:38:22;;;;;;;0.10;0.10;;;15.20;82.00;;;;;;4229664;28;20054;-41
2020/12/07 06:40:43;;;;;;;0.98;0.98;;;15.10;82.00;;;;;;4229981;28;20055;-41
2020/12/07 06:43:18;;;;;;;0.00;0.00;;;15.10;82.10;;;;;;4229694;28;20573;-42
2020/12/07 06:45:39;;;;;;;0.75;0.75;;;15.10;82.30;;;;;;4229099;28;20048;-41
2020/12/07 06:48:07;;;;;;;0.00;0.00;;;15.20;81.80;;;;;;4229547;28;20044;-42
2020/12/07 06:50:30;;;;;;;0.20;0.20;;;15.50;80.90;;;;;;4229418;28;20048;-42
2020/12/07 06:52:52;;;;;;;0.10;0.10;;;15.60;79.90;;;;;;4229544;28;20109;-41
2020/12/07 06:55:15;;;;;;;0.28;0.28;;;15.70;79.40;;;;;;4229912;28;20051;-42
2020/12/07 06:57:42;;;;;;;0.10;0.10;;;15.80;79.10;;;;;;4228746;28;20472;-41
2020/12/07 07:00:07;;;;;;;1.08;1.08;;;15.80;79.00;;;;;;4229794;28;20047;-41
2020/12/07 07:02:29;;;;;;;0.85;0.85;;;15.80;78.90;;;;;;4229436;28;20056;-41
2020/12/07 07:04:55;;;;;;;0.68;0.68;;;15.80;79.00;;;;;;4229241;28;20146;-41
2020/12/07 07:07:19;;;;;;;0.57;0.57;;;15.70;79.10;;;;;;4228180;28;20055;-41
2020/12/07 07:09:40;;;;;;;0.00;0.00;;;15.70;79.40;;;;;;4229390;28;20126;-42
2020/12/07 07:12:01;;;;;;;0.00;0.00;;;15.60;79.70;;;;;;4229790;28;20056;-41
2020/12/07 07:14:21;;;;;;;0.20;0.20;;;15.50;79.80;;;;;;4229580;28;20100;-41
2020/12/07 07:16:42;;;;;;;4.20;0.93;;;15.50;80.50;;;;;;4213346;28;20137;-41
2020/12/07 07:19:04;;;;;;;0.10;0.10;;;15.50;81.60;;;;;;4229313;28;20124;-41
2020/12/07 07:21:26;;;;;;;0.28;0.28;;;15.40;81.70;;;;;;4229018;28;20523;-41
2020/12/07 07:23:48;;;;;;;0.10;0.10;;;15.40;82.10;;;;;;4228721;28;20156;-41
2020/12/07 07:26:16;;;;;;;0.17;0.17;;;15.30;82.20;;;;;;4229253;28;20047;-41
2020/12/07 07:28:38;;;;;;;0.30;0.30;;;15.30;82.20;;;;;;4228205;28;20496;-42
2020/12/07 07:31:04;;;;;;;0.90;0.90;;;15.20;82.60;;;;;;4228154;28;20055;-41
2020/12/07 07:33:25;;;;;;;0.30;0.30;;;15.20;82.70;;;;;;4229733;28;20127;-41
2020/12/07 07:35:46;;;;;;;;;;;15.10;82.90;;;;;;4229081;28;20056;-41
2020/12/07 07:38:08;;;;;;;0.43;0.43;;;15.10;83.00;;;;;;4228974;28;19926;-41
2020/12/07 07:40:30;;;;;;;0.17;0.17;;;15.20;82.60;;;;;;4212705;28;20155;-41
2020/12/07 07:42:55;;;;;;;0.40;0.40;;;15.40;82.10;;;;;;4212213;28;20048;-41
2020/12/07 07:45:20;;;;;;;0.40;0.40;;;15.40;81.60;;;;;;4214246;28;20048;-41
2020/12/07 07:47:49;;;;;;;0.10;0.10;;;15.50;81.40;;;;;;4197378;28;20048;-42
2020/12/07 07:50:30;;;;;;;0.55;0.28;;;15.40;81.10;;;;;;4213705;28;20059;-41
2020/12/07 08:17:12;;;;;;;0.10;0.10;;;15.10;82.10;;;;;;4222712;28;20414;-43
2020/12/07 08:19:33;;;;;;;0.22;0.22;;;15.00;83.10;;;;;;4227210;28;20130;-39
2020/12/07 08:21:53;;;;;;;1.35;1.35;;;15.00;82.40;;;;;;4226947;28;20048;-40
2020/12/07 08:24:15;;;;;;;0.10;0.10;;;14.90;82.50;;;;;;4219261;28;20097;-40
2020/12/07 08:26:42;;;;;;;0.10;0.10;;;14.90;82.80;;;;;;4221341;28;20047;-40
2020/12/07 08:29:06;;;;;;;0.10;0.10;;;14.90;83.00;;;;;;4223499;28;20044;-40
2020/12/07 08:31:35;;;;;;;0.10;0.10;;;14.80;83.00;;;;;;4222710;28;20132;-42
2020/12/07 08:33:59;;;;;;;0.00;0.00;;;14.80;83.10;;;;;;4222480;28;20063;-40
2020/12/07 08:36:20;;;;;;;0.10;0.10;;;14.80;83.30;;;;;;4224251;28;20487;-40
2020/12/07 08:38:41;;;;;;;1.02;0.90;;;14.70;83.20;;;;;;4225416;28;20056;-41
2020/12/07 08:41:05;;;;;;;0.30;0.30;;;14.70;83.30;;;;;;4223148;28;20418;-40
2020/12/07 08:43:26;;;;;;;0.00;0.00;;;14.70;83.40;;;;;;4220960;28;20054;-40
2020/12/07 08:45:48;;;;;;;0.00;0.00;;;14.70;83.50;;;;;;4225180;28;20051;-40
2020/12/07 08:48:11;;;;;;;0.08;0.08;;;14.70;83.60;;;;;;4222846;28;20071;-40
2020/12/07 08:50:32;;;;;;;0.20;0.20;;;14.80;83.30;;;;;;4222627;28;20050;-41
2020/12/07 08:52:59;;;;;;;0.77;0.77;;;14.90;82.60;;;;;;4222336;28;20052;-40
2020/12/07 08:55:21;;;;;;;0.15;0.15;;;15.00;82.20;;;;;;4221103;28;20044;-40
2020/12/07 08:57:46;;;;;;;0.77;0.75;;;15.10;81.90;;;;;;4223638;28;20059;-40
2020/12/07 09:00:06;;;;;;;0.00;0.00;;;15.10;81.70;;;;;;4219070;28;20433;-41
2020/12/07 09:02:28;;;;;;;0.03;0.03;;;15.10;81.70;;;;;;4224082;28;20044;-40
2020/12/07 09:04:50;;;;;;;0.52;0.52;;;15.10;81.70;;;;;;4224367;28;20485;-40
2020/12/07 09:07:14;;;;;;;0.00;0.00;;;15.10;81.60;;;;;;4223746;28;20054;-40
2020/12/07 09:09:35;;;;;;;0.00;0.00;;;15.10;81.70;;;;;;4222959;28;20058;-40
2020/12/07 09:11:59;;;;;;;0.20;0.20;;;15.10;81.80;;;;;;4222101;28;20407;-41
2020/12/07 09:14:23;;;;;;;0.17;0.17;;;15.00;81.90;;;;;;4221006;28;20060;-40
2020/12/07 09:16:44;;;;;;;;;;;15.00;82.00;;;;;;4223490;28;20048;-40
2020/12/07 09:19:06;;;;;;;0.20;0.20;;;15.00;82.20;;;;;;4222779;28;20011;-41
2020/12/07 09:21:29;;;;;;;0.00;0.00;;;14.90;82.20;;;;;;4220597;28;20094;-40
2020/12/07 09:23:50;;;;;;;0.00;0.00;;;14.90;82.30;;;;;;4224993;28;20051;-40
2020/12/07 09:26:11;;;;;;;0.43;0.43;;;14.90;82.40;;;;;;4211934;28;20102;-40
2020/12/07 09:28:32;;;;;;;0.17;0.17;;;14.80;82.50;;;;;;4213547;28;20040;-40
2020/12/07 09:30:56;;;;;;;0.00;0.00;;;14.80;82.70;;;;;;4209943;28;20059;-40
2020/12/07 09:33:18;;;;;;;0.17;0.17;;;14.70;83.60;;;;;;4213325;28;20052;-40
2020/12/07 09:35:39;;;;;;;;;;;14.70;82.90;;;;;;4211987;28;20044;-41
2020/12/07 09:38:01;;;;;;;4.30;1.55;;;14.70;83.00;;;;;;4210313;28;19931;-40
2020/12/07 09:40:23;;;;;;;0.22;0.22;;;14.70;83.10;;;;;;4212085;28;20043;-40
2020/12/07 09:42:44;;;;;;;;;;;14.60;83.20;;;;;;4214021;28;20047;-42
2020/12/07 09:45:06;;;;;;;0.10;0.10;;;14.60;83.20;;;;;;4210928;28;20528;-40
2020/12/07 09:47:27;;;;;;;0.00;0.00;;;14.60;83.30;;;;;;4208924;28;20051;-40
2020/12/07 09:49:48;;;;;;;;;;;14.60;83.30;;;;;;4213519;28;20071;-41
2020/12/07 09:52:09;;;;;;;0.00;0.00;;;14.60;83.40;;;;;;4212988;28;20067;-41
2020/12/07 09:54:36;;;;;;;0.00;0.00;;;14.50;83.40;;;;;;4210369;28;20684;-40
2020/12/07 09:56:57;;;;;;;0.00;0.00;;;14.50;83.60;;;;;;4209860;28;20603;-41
2020/12/07 09:59:18;;;;;;;0.00;0.00;;;14.50;83.60;;;;;;4213174;28;20048;-41
2020/12/07 10:01:38;;;;;;;0.00;0.00;;;14.60;83.50;;;;;;4211113;28;20044;-40
2020/12/07 10:04:00;;;;;;;0.38;0.38;;;14.70;83.10;;;;;;4210171;28;20058;-40
2020/12/07 10:06:21;;;;;;;0.00;0.00;;;14.80;82.50;;;;;;4213410;28;20048;-40
2020/12/07 10:08:42;;;;;;;0.00;0.00;;;14.90;82.00;;;;;;4211461;28;20056;-40
2020/12/07 10:11:03;;;;;;;0.20;0.20;;;15.00;81.50;;;;;;4210638;28;20062;-39
2020/12/07 10:13:24;;;;;;;0.93;0.93;;;15.00;81.30;;;;;;4209395;28;20556;-41
2020/12/07 10:15:46;;;;;;;0.00;0.00;;;15.10;81.10;;;;;;4213206;28;20441;-41
2020/12/07 10:18:07;;;;;;;0.10;0.10;;;15.10;80.80;;;;;;4210641;28;20109;-41
2020/12/07 10:20:28;;;;;;;0.00;0.00;;;15.10;80.70;;;;;;4209469;28;20124;-40
2020/12/07 10:22:49;;;;;;;0.00;0.00;;;15.10;80.70;;;;;;4212640;28;20139;-40
2020/12/07 10:25:10;;;;;;;0.00;0.00;;;15.10;80.60;;;;;;4211170;28;20140;-41
2020/12/07 10:27:32;;;;;;;0.00;0.00;;;15.10;80.70;;;;;;4209795;28;20056;-41
2020/12/07 10:29:53;;;;;;;0.30;0.30;;;15.10;80.80;;;;;;4212182;28;20054;-40
2020/12/07 10:32:15;;;;;;;0.00;0.00;;;15.20;80.30;;;;;;4211753;28;20491;-40
2020/12/07 10:34:37;;;;;;;0.03;0.03;;;15.20;80.30;;;;;;4209811;28;20516;-40
2020/12/07 10:36:59;;;;;;;0.22;0.22;;;15.20;80.30;;;;;;4209275;28;20051;-39
2020/12/07 10:39:19;;;;;;;0.30;0.30;;;15.20;80.30;;;;;;4212232;28;20055;-41
2020/12/07 10:41:41;;;;;;;;;;;15.20;80.30;;;;;;4211678;28;20048;-42
2020/12/07 10:44:03;;;;;;;0.70;0.70;;;15.20;80.40;;;;;;4209651;28;19971;-39
2020/12/07 10:46:24;;;;;;;0.00;0.00;;;15.20;80.60;;;;;;4208440;28;20055;-40
2020/12/07 10:48:45;;;;;;;0.00;0.00;;;15.10;80.90;;;;;;4212282;28;20118;-40
2020/12/07 10:51:06;;;;;;;0.15;0.15;;;15.10;81.10;;;;;;4210099;28;20052;-40
2020/12/07 10:53:27;;;;;;;0.10;0.10;;;15.00;81.90;;;;;;4209264;28;20109;-40
2020/12/07 10:55:48;;;;;;;0.00;0.00;;;15.10;81.10;;;;;;4212390;28;20490;-40
2020/12/07 10:58:09;;;;;;;0.00;0.00;;;15.30;80.40;;;;;;4210382;28;20055;-39
2020/12/07 11:00:31;;;;;;;0.30;0.10;;;15.40;79.60;;;;;;4212463;28;20110;-40
2020/12/07 11:02:52;;;;;;;0.15;0.15;;;15.50;79.00;;;;;;4207159;28;20059;-40
2020/12/07 11:05:15;;;;;;;0.10;0.10;;;15.50;78.60;;;;;;4212577;28;20055;-40
2020/12/07 11:07:36;;;;;;;0.00;0.00;;;15.50;78.50;;;;;;4211980;28;20109;-40
2020/12/07 11:09:59;;;;;;;0.00;0.00;;;15.50;78.50;;;;;;4208685;28;20087;-39
2020/12/07 11:12:21;;;;;;;0.20;0.20;;;15.50;79.30;;;;;;4211315;28;20460;-41
2020/12/07 11:14:44;;;;;;;0.00;0.00;;;15.40;78.30;;;;;;4210397;28;20063;-39
2020/12/07 11:17:08;;;;;;;0.47;0.30;;;15.30;78.30;;;;;;4209322;28;20453;-42
2020/12/07 11:19:28;;;;;;;0.00;0.00;;;15.40;78.30;;;;;;4209925;28;20063;-40
2020/12/07 11:21:51;;;;;;;0.10;0.10;;;15.30;78.10;;;;;;4210930;28;20460;-40
2020/12/07 11:24:12;;;;;;;0.98;0.75;;;15.30;78.30;;;;;;4209981;28;20052;-40
2020/12/07 11:26:32;;;;;;;0.80;0.80;;;15.30;78.40;;;;;;4210604;28;20050;-40
2020/12/07 11:28:53;;;;;;;0.57;0.52;;;15.30;78.30;;;;;;4206937;28;20059;-41
2020/12/07 11:31:16;;;;;;;0.00;0.00;;;15.30;78.20;;;;;;4211251;28;20048;-40
2020/12/07 11:33:39;;;;;;;0.00;0.00;;;15.30;78.10;;;;;;4209736;28;20062;-40
2020/12/07 11:36:06;;;;;;;0.05;0.05;;;15.30;78.10;;;;;;4209199;28;20109;-40
2020/12/07 11:38:30;;;;;;;0.10;0.10;;;15.20;78.10;;;;;;4208578;28;20044;-40
2020/12/07 11:40:59;;;;;;;0.00;0.00;;;15.20;78.20;;;;;;4211458;28;20125;-40
2020/12/07 11:43:32;;;;;;;0.00;0.00;;;15.20;78.40;;;;;;4210689;28;20542;-40
2020/12/07 11:45:55;;;;;;;0.00;0.00;;;15.10;78.40;;;;;;4207498;28;20104;-40
2020/12/07 11:48:15;;;;;;;0.00;0.00;;;15.10;79.40;;;;;;4211399;28;20517;-40
2020/12/07 11:50:37;;;;;;;0.00;0.00;;;15.00;78.70;;;;;;4208635;28;20048;-39
2020/12/07 11:52:58;;;;;;;0.10;0.10;;;14.90;78.80;;;;;;4210654;28;20120;-39
2020/12/07 11:55:20;;;;;;;;;;;14.90;79.00;;;;;;4212148;28;20521;-39
2020/12/07 11:57:45;;;;;;;0.00;0.00;;;14.90;79.10;;;;;;4208882;28;19924;-39
2020/12/07 12:00:05;;;;;;;0.00;0.00;;;14.80;79.20;;;;;;4209160;28;20044;-40
2020/12/07 12:02:27;;;;;;;;;;;14.80;79.30;;;;;;4207842;28;20356;-40
2020/12/07 12:04:48;;;;;;;0.60;0.60;;;14.70;79.50;;;;;;4210562;28;19920;-40
2020/12/07 12:07:10;;;;;;;0.00;0.00;;;14.70;79.60;;;;;;4209249;28;20051;-39
2020/12/07 12:09:31;;;;;;;0.17;0.17;;;14.70;80.10;;;;;;4235910;27;20723;-40
2020/12/07 12:11:55;;;;;;;0.00;0.00;;;14.80;79.60;;;;;;4207411;28;20063;-39
2020/12/07 12:14:16;;;;;;;0.03;0.03;;;14.90;78.80;;;;;;4211199;28;20414;-39
2020/12/07 12:16:42;;;;;;;0.00;0.00;;;15.00;78.30;;;;;;4208977;28;20048;-45
2020/12/07 12:19:04;;;;;;;0.00;0.00;;;15.10;78.10;;;;;;4207187;28;20048;-39
2020/12/07 12:21:28;;;;;;;0.00;0.00;;;15.10;78.00;;;;;;4207072;28;20541;-40
2020/12/07 12:23:50;;;;;;;0.10;0.10;;;15.20;77.80;;;;;;4211467;28;20060;-40
2020/12/07 12:26:15;;;;;;;0.00;0.00;;;15.20;77.80;;;;;;4208663;28;20056;-41
2020/12/07 12:28:36;;;;;;;0.00;0.00;;;15.10;77.60;;;;;;4206907;28;20114;-40
2020/12/07 12:30:57;;;;;;;0.00;0.00;;;15.10;77.50;;;;;;4207297;28;20063;-41
2020/12/07 12:33:19;;;;;;;0.00;0.00;;;15.10;77.60;;;;;;4210553;28;20590;-40
2020/12/07 12:35:40;;;;;;;0.00;0.00;;;15.10;77.60;;;;;;4210874;28;20072;-39
2020/12/07 12:38:01;;;;;;;;;;;15.20;76.80;;;;;;4208607;28;20048;-39
2020/12/07 12:40:23;;;;;;;3.20;1.58;;;15.40;76.00;;;;;;4211123;28;19943;-40
2020/12/07 12:42:44;;;;;;;0.00;0.00;;;15.50;75.30;;;;;;4209324;28;20128;-39
2020/12/07 12:45:05;;;;;;;0.00;0.00;;;15.50;74.90;;;;;;4208367;28;20079;-40
2020/12/07 12:47:26;;;;;;;0.00;0.00;;;15.50;74.60;;;;;;4207132;28;20051;-40
2020/12/07 12:49:47;;;;;;;0.00;0.00;;;15.50;74.60;;;;;;4210758;28;20072;-39
2020/12/07 12:52:08;;;;;;;0.10;0.10;;;15.50;74.40;;;;;;4208591;28;20079;-40